• Join FlightAware (Why Join?)
  • Login
  • US Flag 
01:46AM EDT


 

Airport Tracker/Info


-or-


 

Live Flight TrackerFlight Track Log ✈ EGF4377 ✈ 12-May-2013 ✈ KGRB - KORD

Flight Track Log - Related Links

Times and Time Zones

All times are in EDT time to prevent confusion due to time zone crossing. See the EGF4377 flight status page for this flight to view local times or setup timezone preferences in your user account.

Time Position Orientation Groundspeed Altitude Reporting Facility
EDT Latitude Longitude Course Direction KTS MPH feet Rate Location/Type
03:45PM 44.3088 -88.1167 180° South  Level FlightAware Approximate
03:46PM 44.2216 -88.1167 180° South  Level FlightAware Approximate
03:47PM 44.1343 -88.1167 180° South  Level FlightAware Approximate
03:47PM 44.2569 -88.1931 177° South 273 314 9,800  Level Minneapolis Center
03:48PM 44.0471 -88.1167 180° South  Level FlightAware Approximate
03:48PM 44.1681 -88.1856 177° South 311 358 11,700  Level Minneapolis Center
03:49PM 43.9630 -88.1167 180° South  Level FlightAware Approximate
03:49PM 44.0700 -88.1769 176° South 343 395 12,900  Level Minneapolis Center
03:50PM 43.8789 -88.1167 180° South  Level FlightAware Approximate
03:50PM 43.9606 -88.1681 177° South 384 442 13,000  Level Minneapolis Center
03:51PM 43.7948 -88.1167 180° South  Level FlightAware Approximate
03:51PM 43.8469 -88.1586 177° South 405 466 13,100  Level Minneapolis Center
03:52PM 43.7375 -88.1500 177° South 395 455 13,100  Level Minneapolis Center
03:53PM 43.6083 -88.1403 177° South 396 456 13,100  Level Minneapolis Center
03:53PM 43.5667 -88.1333 173° South 394 453 13,100  Level KMKE
03:54PM 43.4667 -88.1333 180° South 398 458 13,100  Level KMKE
03:55PM 43.4228 -88.1250 172° South 398 458 13,100 -300 Level Chicago Center
03:56PM 43.3233 -88.0567 153° Southeast 407 468 12,700 -960 Descending Chicago Center
03:57PM 43.2286 -87.9736 147° Southeast 401 461 11,200 -1,260 Descending Chicago Center
03:58PM 43.1372 -87.8944 148° Southeast 390 449 10,100 -540 Descending Chicago Center
03:59PM 43.0489 -87.8181 148° Southeast 377 434 10,100  Level Chicago Center
04:00PM 42.9447 -87.7278 148° Southeast 379 436 10,100 -60 Level Chicago Center
04:01PM 42.8533 -87.6644 153° Southeast 368 423 10,000 -420 Descending Chicago Center
04:02PM 42.7681 -87.6517 174° South 306 352 9,300 -780 Descending Chicago Center
04:03PM 42.6858 -87.6419 175° South 298 343 8,500 -960 Descending Chicago Center
04:04PM 42.6069 -87.6278 172° South 285 328 7,400 -780 Descending Chicago Center
04:05PM 42.5322 -87.6169 174° South 272 313 6,900 -300 Descending Chicago Center
04:06PM 42.4436 -87.6033 174° South 274 315 6,900 -60 Level Chicago Center
04:07PM 42.3672 -87.5894 172° South 275 316 6,800 -480 Descending Chicago Center
04:08PM 42.2978 -87.5803 174° South 269 310 6,000 -480 Descending Chicago Center
04:09PM 42.2281 -87.5694 173° South 254 292 5,900 -540 Descending Chicago Center
04:10PM 42.1508 -87.5594 175° South 235 270 5,000 -540 Descending Chicago Center
04:11PM 42.0875 -87.5483 173° South 230 265 4,900 60 Descending Chicago Center
04:11PM 42.0667 -87.5500 183° South 231 266 5,100 -660 Climbing Chicago TRACON
04:12PM 42.0333 -87.6000 228° Southwest 208 239 4,100 -540 Descending Chicago TRACON
04:13PM 42.0000 -87.6667 236° Southwest 203 234 4,000 -120 Descending Chicago TRACON